sensor_id;sensor_type;location;lat;lon;timestamp;P1;durP1;ratioP1;P2;durP2;ratioP2
8663;SDS011;4369;47.842;13.096;2023-07-13T00:00:35;8.47;;;2.90;;
8663;SDS011;4369;47.842;13.096;2023-07-13T00:03:02;3.37;;;2.80;;
8663;SDS011;4369;47.842;13.096;2023-07-13T00:05:29;2.93;;;2.57;;
8663;SDS011;4369;47.842;13.096;2023-07-13T00:07:58;2.83;;;2.63;;
8663;SDS011;4369;47.842;13.096;2023-07-13T00:10:25;2.30;;;2.10;;
8663;SDS011;4369;47.842;13.096;2023-07-13T00:12:52;3.20;;;2.20;;
8663;SDS011;4369;47.842;13.096;2023-07-13T00:15:22;3.60;;;2.20;;
8663;SDS011;4369;47.842;13.096;2023-07-13T00:17:52;3.33;;;2.63;;
8663;SDS011;4369;47.842;13.096;2023-07-13T00:20:21;2.60;;;2.07;;
8663;SDS011;4369;47.842;13.096;2023-07-13T00:22:49;2.37;;;2.17;;
8663;SDS011;4369;47.842;13.096;2023-07-13T00:25:19;2.40;;;2.13;;
8663;SDS011;4369;47.842;13.096;2023-07-13T00:27:49;2.47;;;2.27;;
8663;SDS011;4369;47.842;13.096;2023-07-13T00:30:16;2.47;;;2.27;;
8663;SDS011;4369;47.842;13.096;2023-07-13T00:32:43;2.20;;;2.10;;
8663;SDS011;4369;47.842;13.096;2023-07-13T00:35:12;2.87;;;2.60;;
8663;SDS011;4369;47.842;13.096;2023-07-13T00:37:40;2.60;;;2.40;;
8663;SDS011;4369;47.842;13.096;2023-07-13T00:40:07;3.83;;;3.07;;
8663;SDS011;4369;47.842;13.096;2023-07-13T00:42:37;4.70;;;2.77;;
8663;SDS011;4369;47.842;13.096;2023-07-13T00:45:05;3.93;;;3.20;;
8663;SDS011;4369;47.842;13.096;2023-07-13T00:47:55;3.87;;;2.50;;
8663;SDS011;4369;47.842;13.096;2023-07-13T00:50:23;2.47;;;2.27;;
8663;SDS011;4369;47.842;13.096;2023-07-13T00:52:52;3.00;;;2.20;;
8663;SDS011;4369;47.842;13.096;2023-07-13T00:55:23;2.47;;;2.27;;
8663;SDS011;4369;47.842;13.096;2023-07-13T00:57:51;3.00;;;2.30;;
8663;SDS011;4369;47.842;13.096;2023-07-13T01:00:18;3.23;;;2.43;;
8663;SDS011;4369;47.842;13.096;2023-07-13T01:02:48;2.13;;;2.03;;
8663;SDS011;4369;47.842;13.096;2023-07-13T01:05:16;2.10;;;1.90;;
8663;SDS011;4369;47.842;13.096;2023-07-13T01:07:45;2.27;;;2.07;;
8663;SDS011;4369;47.842;13.096;2023-07-13T01:10:14;2.33;;;1.97;;
8663;SDS011;4369;47.842;13.096;2023-07-13T01:12:41;3.50;;;2.00;;
8663;SDS011;4369;47.842;13.096;2023-07-13T01:18:02;2.43;;;2.00;;
8663;SDS011;4369;47.842;13.096;2023-07-13T01:20:29;2.63;;;2.10;;
8663;SDS011;4369;47.842;13.096;2023-07-13T01:23:02;1.80;;;1.70;;
8663;SDS011;4369;47.842;13.096;2023-07-13T01:25:31;2.20;;;2.00;;
8663;SDS011;4369;47.842;13.096;2023-07-13T01:27:58;2.23;;;2.03;;
8663;SDS011;4369;47.842;13.096;2023-07-13T01:30:25;2.33;;;1.73;;
8663;SDS011;4369;47.842;13.096;2023-07-13T01:32:52;1.87;;;1.70;;
8663;SDS011;4369;47.842;13.096;2023-07-13T01:35:18;2.30;;;1.73;;
8663;SDS011;4369;47.842;13.096;2023-07-13T01:37:45;2.20;;;2.00;;
8663;SDS011;4369;47.842;13.096;2023-07-13T01:40:14;2.10;;;1.70;;
8663;SDS011;4369;47.842;13.096;2023-07-13T01:42:41;1.93;;;1.70;;
8663;SDS011;4369;47.842;13.096;2023-07-13T01:45:08;1.67;;;1.57;;
8663;SDS011;4369;47.842;13.096;2023-07-13T01:47:35;1.70;;;1.60;;
8663;SDS011;4369;47.842;13.096;2023-07-13T01:50:02;2.27;;;1.73;;
8663;SDS011;4369;47.842;13.096;2023-07-13T01:52:29;2.17;;;1.93;;
8663;SDS011;4369;47.842;13.096;2023-07-13T01:54:55;1.60;;;1.50;;
8663;SDS011;4369;47.842;13.096;2023-07-13T01:57:24;2.40;;;1.70;;
8663;SDS011;4369;47.842;13.096;2023-07-13T01:59:50;2.10;;;1.93;;
8663;SDS011;4369;47.842;13.096;2023-07-13T02:02:17;2.70;;;1.90;;
8663;SDS011;4369;47.842;13.096;2023-07-13T02:04:44;2.10;;;1.90;;
8663;SDS011;4369;47.842;13.096;2023-07-13T02:07:11;5.03;;;2.20;;
8663;SDS011;4369;47.842;13.096;2023-07-13T02:09:40;2.60;;;2.40;;
8663;SDS011;4369;47.842;13.096;2023-07-13T02:12:07;3.30;;;2.23;;
8663;SDS011;4369;47.842;13.096;2023-07-13T02:14:36;2.88;;;2.50;;
8663;SDS011;4369;47.842;13.096;2023-07-13T02:17:03;4.50;;;2.53;;
8663;SDS011;4369;47.842;13.096;2023-07-13T02:19:30;2.27;;;2.10;;
8663;SDS011;4369;47.842;13.096;2023-07-13T02:21:57;2.63;;;2.43;;
8663;SDS011;4369;47.842;13.096;2023-07-13T02:24:24;2.77;;;2.30;;
8663;SDS011;4369;47.842;13.096;2023-07-13T02:26:51;4.03;;;2.43;;
8663;SDS011;4369;47.842;13.096;2023-07-13T02:29:18;2.40;;;2.30;;
8663;SDS011;4369;47.842;13.096;2023-07-13T02:31:46;3.17;;;2.23;;
8663;SDS011;4369;47.842;13.096;2023-07-13T02:34:13;2.33;;;2.10;;
8663;SDS011;4369;47.842;13.096;2023-07-13T02:36:40;3.53;;;2.40;;
8663;SDS011;4369;47.842;13.096;2023-07-13T02:39:07;3.03;;;2.23;;
8663;SDS011;4369;47.842;13.096;2023-07-13T02:41:34;2.27;;;1.80;;
8663;SDS011;4369;47.842;13.096;2023-07-13T02:44:01;2.17;;;1.90;;
8663;SDS011;4369;47.842;13.096;2023-07-13T02:46:29;2.50;;;2.10;;
8663;SDS011;4369;47.842;13.096;2023-07-13T02:48:57;2.43;;;2.23;;
8663;SDS011;4369;47.842;13.096;2023-07-13T02:51:24;3.23;;;2.10;;
8663;SDS011;4369;47.842;13.096;2023-07-13T02:53:51;1.87;;;1.77;;
8663;SDS011;4369;47.842;13.096;2023-07-13T02:56:18;2.83;;;2.07;;
8663;SDS011;4369;47.842;13.096;2023-07-13T02:58:48;2.33;;;1.97;;
8663;SDS011;4369;47.842;13.096;2023-07-13T03:01:15;2.10;;;1.90;;
8663;SDS011;4369;47.842;13.096;2023-07-13T03:03:44;2.63;;;2.00;;
8663;SDS011;4369;47.842;13.096;2023-07-13T03:06:13;4.80;;;2.00;;
8663;SDS011;4369;47.842;13.096;2023-07-13T03:08:40;3.67;;;2.20;;
8663;SDS011;4369;47.842;13.096;2023-07-13T03:11:08;2.10;;;1.90;;
8663;SDS011;4369;47.842;13.096;2023-07-13T03:13:36;2.13;;;1.93;;
8663;SDS011;4369;47.842;13.096;2023-07-13T03:16:03;1.97;;;1.63;;
8663;SDS011;4369;47.842;13.096;2023-07-13T03:18:31;2.50;;;2.03;;
8663;SDS011;4369;47.842;13.096;2023-07-13T03:20:58;2.80;;;1.90;;
8663;SDS011;4369;47.842;13.096;2023-07-13T03:23:26;1.77;;;1.67;;
8663;SDS011;4369;47.842;13.096;2023-07-13T03:26:00;1.87;;;1.70;;
8663;SDS011;4369;47.842;13.096;2023-07-13T03:28:28;2.87;;;1.93;;
8663;SDS011;4369;47.842;13.096;2023-07-13T03:30:59;6.00;;;1.97;;
8663;SDS011;4369;47.842;13.096;2023-07-13T03:33:26;2.23;;;2.00;;
8663;SDS011;4369;47.842;13.096;2023-07-13T03:35:54;1.97;;;1.87;;
8663;SDS011;4369;47.842;13.096;2023-07-13T03:38:20;2.90;;;1.90;;
8663;SDS011;4369;47.842;13.096;2023-07-13T03:40:49;2.00;;;1.80;;
8663;SDS011;4369;47.842;13.096;2023-07-13T03:43:16;1.87;;;1.77;;
8663;SDS011;4369;47.842;13.096;2023-07-13T03:45:43;3.33;;;2.00;;
8663;SDS011;4369;47.842;13.096;2023-07-13T03:48:09;1.80;;;1.70;;
8663;SDS011;4369;47.842;13.096;2023-07-13T03:50:36;2.80;;;2.00;;
8663;SDS011;4369;47.842;13.096;2023-07-13T03:53:03;1.93;;;1.80;;
8663;SDS011;4369;47.842;13.096;2023-07-13T03:55:30;3.00;;;1.90;;
8663;SDS011;4369;47.842;13.096;2023-07-13T03:58:00;2.90;;;1.80;;
8663;SDS011;4369;47.842;13.096;2023-07-13T04:00:48;3.83;;;1.80;;
8663;SDS011;4369;47.842;13.096;2023-07-13T04:03:15;1.73;;;1.60;;
8663;SDS011;4369;47.842;13.096;2023-07-13T04:05:42;3.03;;;1.97;;
8663;SDS011;4369;47.842;13.096;2023-07-13T04:08:09;2.90;;;1.60;;
8663;SDS011;4369;47.842;13.096;2023-07-13T04:10:36;2.40;;;1.90;;
8663;SDS011;4369;47.842;13.096;2023-07-13T04:13:05;2.13;;;1.77;;
8663;SDS011;4369;47.842;13.096;2023-07-13T04:15:32;1.80;;;1.60;;
8663;SDS011;4369;47.842;13.096;2023-07-13T04:17:59;2.47;;;1.60;;
8663;SDS011;4369;47.842;13.096;2023-07-13T04:20:26;1.90;;;1.80;;
8663;SDS011;4369;47.842;13.096;2023-07-13T04:22:53;2.63;;;1.80;;
8663;SDS011;4369;47.842;13.096;2023-07-13T04:25:20;1.90;;;1.80;;
8663;SDS011;4369;47.842;13.096;2023-07-13T04:27:47;2.10;;;1.97;;
8663;SDS011;4369;47.842;13.096;2023-07-13T04:30:15;1.90;;;1.80;;
8663;SDS011;4369;47.842;13.096;2023-07-13T04:32:42;4.10;;;1.80;;
8663;SDS011;4369;47.842;13.096;2023-07-13T04:35:09;2.10;;;1.90;;
8663;SDS011;4369;47.842;13.096;2023-07-13T04:37:36;2.93;;;2.10;;
8663;SDS011;4369;47.842;13.096;2023-07-13T04:40:03;2.03;;;1.80;;
8663;SDS011;4369;47.842;13.096;2023-07-13T04:42:31;2.00;;;1.80;;
8663;SDS011;4369;47.842;13.096;2023-07-13T04:44:59;2.73;;;1.60;;
8663;SDS011;4369;47.842;13.096;2023-07-13T04:47:29;1.70;;;1.50;;
8663;SDS011;4369;47.842;13.096;2023-07-13T04:49:56;1.70;;;1.60;;
8663;SDS011;4369;47.842;13.096;2023-07-13T04:52:23;2.10;;;2.00;;
8663;SDS011;4369;47.842;13.096;2023-07-13T04:54:50;2.63;;;1.83;;
8663;SDS011;4369;47.842;13.096;2023-07-13T04:57:17;2.57;;;1.77;;
8663;SDS011;4369;47.842;13.096;2023-07-13T04:59:43;2.27;;;2.00;;
8663;SDS011;4369;47.842;13.096;2023-07-13T05:02:10;2.50;;;2.07;;
8663;SDS011;4369;47.842;13.096;2023-07-13T05:04:39;2.67;;;2.10;;
8663;SDS011;4369;47.842;13.096;2023-07-13T05:07:05;3.53;;;1.97;;
8663;SDS011;4369;47.842;13.096;2023-07-13T05:09:32;1.80;;;1.70;;
8663;SDS011;4369;47.842;13.096;2023-07-13T05:11:59;2.00;;;1.90;;
8663;SDS011;4369;47.842;13.096;2023-07-13T05:14:26;2.17;;;1.90;;
8663;SDS011;4369;47.842;13.096;2023-07-13T05:16:53;2.80;;;1.93;;
8663;SDS011;4369;47.842;13.096;2023-07-13T05:19:22;1.90;;;1.70;;
8663;SDS011;4369;47.842;13.096;2023-07-13T05:21:51;2.60;;;2.40;;
8663;SDS011;4369;47.842;13.096;2023-07-13T05:24:17;2.03;;;1.90;;
8663;SDS011;4369;47.842;13.096;2023-07-13T05:26:44;3.77;;;2.40;;
8663;SDS011;4369;47.842;13.096;2023-07-13T05:29:11;2.90;;;2.20;;
8663;SDS011;4369;47.842;13.096;2023-07-13T05:31:38;2.30;;;2.10;;
8663;SDS011;4369;47.842;13.096;2023-07-13T05:34:05;2.27;;;2.17;;
8663;SDS011;4369;47.842;13.096;2023-07-13T05:36:32;2.83;;;2.23;;
8663;SDS011;4369;47.842;13.096;2023-07-13T05:39:00;2.50;;;2.30;;
8663;SDS011;4369;47.842;13.096;2023-07-13T05:41:28;2.43;;;2.23;;
8663;SDS011;4369;47.842;13.096;2023-07-13T05:43:55;3.70;;;2.40;;
8663;SDS011;4369;47.842;13.096;2023-07-13T05:46:22;2.57;;;2.23;;
8663;SDS011;4369;47.842;13.096;2023-07-13T05:48:49;2.53;;;2.30;;
8663;SDS011;4369;47.842;13.096;2023-07-13T05:51:16;4.60;;;2.80;;
8663;SDS011;4369;47.842;13.096;2023-07-13T05:53:43;2.40;;;2.20;;
8663;SDS011;4369;47.842;13.096;2023-07-13T05:56:11;2.20;;;2.00;;
8663;SDS011;4369;47.842;13.096;2023-07-13T05:58:38;3.63;;;2.10;;
8663;SDS011;4369;47.842;13.096;2023-07-13T06:01:06;4.80;;;2.30;;
8663;SDS011;4369;47.842;13.096;2023-07-13T06:03:36;2.30;;;2.10;;
8663;SDS011;4369;47.842;13.096;2023-07-13T06:06:03;2.33;;;2.13;;
8663;SDS011;4369;47.842;13.096;2023-07-13T06:08:31;4.00;;;2.50;;
8663;SDS011;4369;47.842;13.096;2023-07-13T06:11:02;2.80;;;2.60;;
8663;SDS011;4369;47.842;13.096;2023-07-13T06:13:31;2.23;;;2.13;;
8663;SDS011;4369;47.842;13.096;2023-07-13T06:15:59;2.80;;;2.50;;
8663;SDS011;4369;47.842;13.096;2023-07-13T06:18:29;4.10;;;2.80;;
8663;SDS011;4369;47.842;13.096;2023-07-13T06:20:56;3.00;;;2.70;;
8663;SDS011;4369;47.842;13.096;2023-07-13T06:23:23;3.40;;;2.63;;
8663;SDS011;4369;47.842;13.096;2023-07-13T06:25:51;3.87;;;2.93;;
8663;SDS011;4369;47.842;13.096;2023-07-13T06:28:18;4.77;;;2.47;;
8663;SDS011;4369;47.842;13.096;2023-07-13T06:30:47;3.50;;;2.83;;
8663;SDS011;4369;47.842;13.096;2023-07-13T06:33:13;2.90;;;2.70;;
8663;SDS011;4369;47.842;13.096;2023-07-13T06:35:40;2.87;;;2.67;;
8663;SDS011;4369;47.842;13.096;2023-07-13T06:38:07;3.53;;;2.53;;
8663;SDS011;4369;47.842;13.096;2023-07-13T06:40:34;3.33;;;3.03;;
8663;SDS011;4369;47.842;13.096;2023-07-13T06:43:01;3.30;;;3.00;;
8663;SDS011;4369;47.842;13.096;2023-07-13T06:45:28;5.73;;;3.33;;
8663;SDS011;4369;47.842;13.096;2023-07-13T06:47:56;6.63;;;3.10;;
8663;SDS011;4369;47.842;13.096;2023-07-13T06:50:23;2.90;;;2.70;;
8663;SDS011;4369;47.842;13.096;2023-07-13T06:52:50;3.90;;;3.57;;
8663;SDS011;4369;47.842;13.096;2023-07-13T06:55:17;5.20;;;3.50;;
8663;SDS011;4369;47.842;13.096;2023-07-13T06:57:44;6.50;;;4.10;;
8663;SDS011;4369;47.842;13.096;2023-07-13T07:00:11;6.07;;;3.80;;
8663;SDS011;4369;47.842;13.096;2023-07-13T07:02:39;4.07;;;3.50;;
8663;SDS011;4369;47.842;13.096;2023-07-13T07:05:07;4.40;;;3.50;;
8663;SDS011;4369;47.842;13.096;2023-07-13T07:07:34;4.60;;;3.50;;
8663;SDS011;4369;47.842;13.096;2023-07-13T07:10:02;3.43;;;3.13;;
8663;SDS011;4369;47.842;13.096;2023-07-13T07:12:29;3.83;;;3.53;;
8663;SDS011;4369;47.842;13.096;2023-07-13T07:14:56;3.60;;;3.30;;
8663;SDS011;4369;47.842;13.096;2023-07-13T07:17:23;4.03;;;3.67;;
8663;SDS011;4369;47.842;13.096;2023-07-13T07:19:51;4.80;;;3.40;;
8663;SDS011;4369;47.842;13.096;2023-07-13T07:22:20;3.77;;;3.30;;
8663;SDS011;4369;47.842;13.096;2023-07-13T07:24:47;3.67;;;3.37;;
8663;SDS011;4369;47.842;13.096;2023-07-13T07:27:14;4.77;;;3.00;;
8663;SDS011;4369;47.842;13.096;2023-07-13T07:29:41;4.33;;;3.40;;
8663;SDS011;4369;47.842;13.096;2023-07-13T07:32:08;3.30;;;3.00;;
8663;SDS011;4369;47.842;13.096;2023-07-13T07:34:35;3.60;;;3.30;;
8663;SDS011;4369;47.842;13.096;2023-07-13T07:37:02;3.77;;;3.20;;
8663;SDS011;4369;47.842;13.096;2023-07-13T07:39:30;3.43;;;3.13;;
8663;SDS011;4369;47.842;13.096;2023-07-13T07:41:57;5.27;;;3.20;;
8663;SDS011;4369;47.842;13.096;2023-07-13T07:44:24;3.30;;;3.00;;
8663;SDS011;4369;47.842;13.096;2023-07-13T07:46:52;3.50;;;3.20;;
8663;SDS011;4369;47.842;13.096;2023-07-13T07:49:19;3.53;;;3.10;;
8663;SDS011;4369;47.842;13.096;2023-07-13T07:51:46;5.60;;;3.40;;
8663;SDS011;4369;47.842;13.096;2023-07-13T07:54:13;3.90;;;3.30;;
8663;SDS011;4369;47.842;13.096;2023-07-13T07:56:41;3.97;;;2.90;;
8663;SDS011;4369;47.842;13.096;2023-07-13T07:59:08;3.30;;;2.90;;
8663;SDS011;4369;47.842;13.096;2023-07-13T08:01:35;3.60;;;3.30;;
8663;SDS011;4369;47.842;13.096;2023-07-13T08:04:02;4.93;;;2.87;;
8663;SDS011;4369;47.842;13.096;2023-07-13T08:06:29;3.07;;;2.63;;
8663;SDS011;4369;47.842;13.096;2023-07-13T08:08:58;3.93;;;2.97;;
8663;SDS011;4369;47.842;13.096;2023-07-13T08:11:26;2.93;;;2.67;;
8663;SDS011;4369;47.842;13.096;2023-07-13T08:13:55;4.63;;;3.00;;
8663;SDS011;4369;47.842;13.096;2023-07-13T08:16:22;4.37;;;3.20;;
8663;SDS011;4369;47.842;13.096;2023-07-13T08:18:50;3.53;;;2.83;;
8663;SDS011;4369;47.842;13.096;2023-07-13T08:21:16;3.57;;;3.20;;
8663;SDS011;4369;47.842;13.096;2023-07-13T08:23:45;4.10;;;3.30;;
8663;SDS011;4369;47.842;13.096;2023-07-13T08:26:12;4.83;;;3.70;;
8663;SDS011;4369;47.842;13.096;2023-07-13T08:28:39;4.20;;;3.23;;
8663;SDS011;4369;47.842;13.096;2023-07-13T08:31:09;3.73;;;3.17;;
8663;SDS011;4369;47.842;13.096;2023-07-13T08:33:36;3.57;;;3.00;;
8663;SDS011;4369;47.842;13.096;2023-07-13T08:36:05;7.17;;;3.13;;
8663;SDS011;4369;47.842;13.096;2023-07-13T08:38:32;4.23;;;3.57;;
8663;SDS011;4369;47.842;13.096;2023-07-13T08:41:01;3.50;;;3.20;;
8663;SDS011;4369;47.842;13.096;2023-07-13T08:43:37;3.30;;;3.00;;
8663;SDS011;4369;47.842;13.096;2023-07-13T08:46:05;4.27;;;3.27;;
8663;SDS011;4369;47.842;13.096;2023-07-13T08:48:39;3.27;;;2.83;;
8663;SDS011;4369;47.842;13.096;2023-07-13T08:51:12;5.17;;;3.03;;
8663;SDS011;4369;47.842;13.096;2023-07-13T08:53:52;3.47;;;3.03;;
8663;SDS011;4369;47.842;13.096;2023-07-13T08:56:24;4.40;;;3.10;;
8663;SDS011;4369;47.842;13.096;2023-07-13T08:58:54;2.90;;;2.53;;
8663;SDS011;4369;47.842;13.096;2023-07-13T09:01:27;3.37;;;2.90;;
8663;SDS011;4369;47.842;13.096;2023-07-13T09:04:08;4.73;;;3.20;;
8663;SDS011;4369;47.842;13.096;2023-07-13T09:06:44;3.07;;;2.73;;
8663;SDS011;4369;47.842;13.096;2023-07-13T09:09:33;3.40;;;2.67;;
8663;SDS011;4369;47.842;13.096;2023-07-13T09:12:10;3.17;;;2.50;;
8663;SDS011;4369;47.842;13.096;2023-07-13T09:14:44;2.80;;;2.60;;
8663;SDS011;4369;47.842;13.096;2023-07-13T09:17:17;3.70;;;2.57;;
8663;SDS011;4369;47.842;13.096;2023-07-13T09:19:48;3.13;;;2.73;;
8663;SDS011;4369;47.842;13.096;2023-07-13T09:22:20;3.37;;;2.70;;
8663;SDS011;4369;47.842;13.096;2023-07-13T09:24:54;2.90;;;2.57;;
8663;SDS011;4369;47.842;13.096;2023-07-13T09:27:27;3.27;;;2.90;;
8663;SDS011;4369;47.842;13.096;2023-07-13T09:30:02;3.23;;;2.83;;
8663;SDS011;4369;47.842;13.096;2023-07-13T09:32:47;5.77;;;3.17;;
8663;SDS011;4369;47.842;13.096;2023-07-13T09:35:19;4.57;;;2.73;;
8663;SDS011;4369;47.842;13.096;2023-07-13T09:37:47;3.13;;;2.70;;
8663;SDS011;4369;47.842;13.096;2023-07-13T09:40:17;3.30;;;3.00;;
8663;SDS011;4369;47.842;13.096;2023-07-13T09:42:50;3.23;;;2.90;;
8663;SDS011;4369;47.842;13.096;2023-07-13T09:45:26;3.23;;;2.93;;
8663;SDS011;4369;47.842;13.096;2023-07-13T09:48:02;3.20;;;2.90;;
8663;SDS011;4369;47.842;13.096;2023-07-13T09:50:31;3.40;;;2.97;;
8663;SDS011;4369;47.842;13.096;2023-07-13T09:52:58;4.40;;;3.27;;
8663;SDS011;4369;47.842;13.096;2023-07-13T09:55:29;4.60;;;3.17;;
8663;SDS011;4369;47.842;13.096;2023-07-13T09:58:02;2.87;;;2.60;;
8663;SDS011;4369;47.842;13.096;2023-07-13T10:00:31;4.00;;;3.53;;
8663;SDS011;4369;47.842;13.096;2023-07-13T10:03:01;3.20;;;2.90;;
8663;SDS011;4369;47.842;13.096;2023-07-13T10:05:40;4.20;;;3.20;;
8663;SDS011;4369;47.842;13.096;2023-07-13T10:08:18;3.93;;;2.97;;
8663;SDS011;4369;47.842;13.096;2023-07-13T10:10:51;3.90;;;3.33;;
8663;SDS011;4369;47.842;13.096;2023-07-13T10:13:30;3.40;;;3.00;;
8663;SDS011;4369;47.842;13.096;2023-07-13T10:16:01;4.10;;;3.47;;
8663;SDS011;4369;47.842;13.096;2023-07-13T10:18:34;5.87;;;3.43;;
8663;SDS011;4369;47.842;13.096;2023-07-13T10:21:10;4.50;;;3.57;;
8663;SDS011;4369;47.842;13.096;2023-07-13T10:23:40;3.60;;;3.20;;
8663;SDS011;4369;47.842;13.096;2023-07-13T10:26:09;4.33;;;3.93;;
8663;SDS011;4369;47.842;13.096;2023-07-13T10:28:41;3.77;;;3.33;;
8663;SDS011;4369;47.842;13.096;2023-07-13T10:31:13;4.87;;;2.90;;
8663;SDS011;4369;47.842;13.096;2023-07-13T10:33:43;4.63;;;3.17;;
8663;SDS011;4369;47.842;13.096;2023-07-13T10:36:14;3.67;;;3.37;;
8663;SDS011;4369;47.842;13.096;2023-07-13T10:38:47;4.43;;;3.23;;
8663;SDS011;4369;47.842;13.096;2023-07-13T10:41:17;6.17;;;3.40;;
8663;SDS011;4369;47.842;13.096;2023-07-13T10:43:46;4.90;;;3.20;;
8663;SDS011;4369;47.842;13.096;2023-07-13T10:46:16;4.83;;;3.77;;
8663;SDS011;4369;47.842;13.096;2023-07-13T10:48:48;4.00;;;3.33;;
8663;SDS011;4369;47.842;13.096;2023-07-13T10:51:17;6.20;;;3.33;;
8663;SDS011;4369;47.842;13.096;2023-07-13T10:53:47;4.27;;;3.87;;
8663;SDS011;4369;47.842;13.096;2023-07-13T10:56:19;5.57;;;4.20;;
8663;SDS011;4369;47.842;13.096;2023-07-13T10:59:01;5.37;;;3.57;;
8663;SDS011;4369;47.842;13.096;2023-07-13T11:01:39;6.57;;;3.90;;
8663;SDS011;4369;47.842;13.096;2023-07-13T11:04:10;4.53;;;3.20;;
8663;SDS011;4369;47.842;13.096;2023-07-13T11:06:40;3.20;;;3.00;;
8663;SDS011;4369;47.842;13.096;2023-07-13T11:09:24;5.33;;;3.30;;
8663;SDS011;4369;47.842;13.096;2023-07-13T11:11:58;4.77;;;3.67;;
8663;SDS011;4369;47.842;13.096;2023-07-13T11:14:27;5.37;;;3.00;;
8663;SDS011;4369;47.842;13.096;2023-07-13T11:16:57;4.30;;;3.17;;
8663;SDS011;4369;47.842;13.096;2023-07-13T11:22:21;4.57;;;3.60;;
8663;SDS011;4369;47.842;13.096;2023-07-13T11:27:38;4.00;;;3.30;;
8663;SDS011;4369;47.842;13.096;2023-07-13T11:30:19;4.30;;;3.43;;
8663;SDS011;4369;47.842;13.096;2023-07-13T11:33:02;4.77;;;3.60;;
8663;SDS011;4369;47.842;13.096;2023-07-13T11:35:40;8.67;;;3.80;;
8663;SDS011;4369;47.842;13.096;2023-07-13T11:38:15;3.97;;;3.47;;
8663;SDS011;4369;47.842;13.096;2023-07-13T11:40:45;4.10;;;3.70;;
8663;SDS011;4369;47.842;13.096;2023-07-13T11:43:14;4.30;;;3.50;;
8663;SDS011;4369;47.842;13.096;2023-07-13T11:45:42;3.87;;;3.47;;
8663;SDS011;4369;47.842;13.096;2023-07-13T11:48:20;4.37;;;3.07;;
8663;SDS011;4369;47.842;13.096;2023-07-13T11:50:51;4.30;;;3.20;;
8663;SDS011;4369;47.842;13.096;2023-07-13T11:53:20;5.00;;;3.47;;
8663;SDS011;4369;47.842;13.096;2023-07-13T11:55:47;5.00;;;3.57;;
8663;SDS011;4369;47.842;13.096;2023-07-13T11:58:17;5.10;;;3.53;;
8663;SDS011;4369;47.842;13.096;2023-07-13T12:00:49;3.67;;;3.23;;
8663;SDS011;4369;47.842;13.096;2023-07-13T12:03:17;3.70;;;3.40;;
8663;SDS011;4369;47.842;13.096;2023-07-13T12:05:57;4.97;;;3.50;;
8663;SDS011;4369;47.842;13.096;2023-07-13T12:08:26;3.80;;;3.30;;
8663;SDS011;4369;47.842;13.096;2023-07-13T12:10:57;5.60;;;3.30;;
8663;SDS011;4369;47.842;13.096;2023-07-13T12:13:35;6.07;;;3.50;;
8663;SDS011;4369;47.842;13.096;2023-07-13T12:16:08;5.43;;;3.50;;
8663;SDS011;4369;47.842;13.096;2023-07-13T12:18:41;6.20;;;3.90;;
8663;SDS011;4369;47.842;13.096;2023-07-13T12:21:13;6.53;;;4.10;;
8663;SDS011;4369;47.842;13.096;2023-07-13T12:23:44;5.17;;;3.87;;
8663;SDS011;4369;47.842;13.096;2023-07-13T12:26:14;4.03;;;3.73;;
8663;SDS011;4369;47.842;13.096;2023-07-13T12:28:44;4.93;;;4.20;;
8663;SDS011;4369;47.842;13.096;2023-07-13T12:31:23;4.13;;;3.80;;
8663;SDS011;4369;47.842;13.096;2023-07-13T12:33:59;3.93;;;3.40;;
8663;SDS011;4369;47.842;13.096;2023-07-13T12:36:33;5.63;;;3.40;;
8663;SDS011;4369;47.842;13.096;2023-07-13T12:39:12;5.63;;;3.90;;
8663;SDS011;4369;47.842;13.096;2023-07-13T12:41:41;5.77;;;4.30;;
8663;SDS011;4369;47.842;13.096;2023-07-13T12:44:11;5.10;;;4.60;;
8663;SDS011;4369;47.842;13.096;2023-07-13T12:46:39;6.93;;;4.77;;
8663;SDS011;4369;47.842;13.096;2023-07-13T12:49:06;5.83;;;4.03;;
8663;SDS011;4369;47.842;13.096;2023-07-13T12:51:35;5.47;;;4.47;;
8663;SDS011;4369;47.842;13.096;2023-07-13T12:54:12;4.80;;;4.27;;
8663;SDS011;4369;47.842;13.096;2023-07-13T12:56:42;7.17;;;4.47;;
8663;SDS011;4369;47.842;13.096;2023-07-13T12:59:14;7.67;;;4.60;;
8663;SDS011;4369;47.842;13.096;2023-07-13T13:01:44;5.50;;;4.77;;
8663;SDS011;4369;47.842;13.096;2023-07-13T13:04:12;5.20;;;4.03;;
8663;SDS011;4369;47.842;13.096;2023-07-13T13:06:41;6.87;;;4.27;;
8663;SDS011;4369;47.842;13.096;2023-07-13T13:09:11;6.07;;;4.73;;
8663;SDS011;4369;47.842;13.096;2023-07-13T13:11:40;6.03;;;4.33;;
8663;SDS011;4369;47.842;13.096;2023-07-13T13:14:07;6.07;;;4.10;;
8663;SDS011;4369;47.842;13.096;2023-07-13T13:16:35;7.20;;;4.53;;
8663;SDS011;4369;47.842;13.096;2023-07-13T13:19:10;5.60;;;4.60;;
8663;SDS011;4369;47.842;13.096;2023-07-13T13:21:41;4.73;;;4.33;;
8663;SDS011;4369;47.842;13.096;2023-07-13T13:24:11;10.50;;;5.10;;
8663;SDS011;4369;47.842;13.096;2023-07-13T13:26:39;6.20;;;4.23;;
8663;SDS011;4369;47.842;13.096;2023-07-13T13:29:09;5.10;;;4.60;;
8663;SDS011;4369;47.842;13.096;2023-07-13T13:31:40;4.43;;;4.03;;
8663;SDS011;4369;47.842;13.096;2023-07-13T13:34:07;5.57;;;4.10;;
8663;SDS011;4369;47.842;13.096;2023-07-13T13:36:36;5.30;;;4.33;;
8663;SDS011;4369;47.842;13.096;2023-07-13T13:39:08;6.00;;;4.40;;
8663;SDS011;4369;47.842;13.096;2023-07-13T13:41:46;5.10;;;4.60;;
8663;SDS011;4369;47.842;13.096;2023-07-13T13:44:14;5.70;;;4.80;;
8663;SDS011;4369;47.842;13.096;2023-07-13T13:46:43;5.30;;;4.30;;
8663;SDS011;4369;47.842;13.096;2023-07-13T13:49:13;5.03;;;4.30;;
8663;SDS011;4369;47.842;13.096;2023-07-13T13:51:42;4.88;;;3.80;;
8663;SDS011;4369;47.842;13.096;2023-07-13T13:54:12;7.20;;;4.70;;
8663;SDS011;4369;47.842;13.096;2023-07-13T13:56:41;4.38;;;3.55;;
8663;SDS011;4369;47.842;13.096;2023-07-13T13:59:08;4.00;;;3.60;;
8663;SDS011;4369;47.842;13.096;2023-07-13T14:01:35;3.25;;;2.92;;
8663;SDS011;4369;47.842;13.096;2023-07-13T14:04:03;5.10;;;2.92;;
8663;SDS011;4369;47.842;13.096;2023-07-13T14:06:33;3.65;;;2.70;;
8663;SDS011;4369;47.842;13.096;2023-07-13T14:09:00;3.90;;;2.50;;
8663;SDS011;4369;47.842;13.096;2023-07-13T14:11:29;2.95;;;2.50;;
8663;SDS011;4369;47.842;13.096;2023-07-13T14:13:58;2.83;;;2.17;;
8663;SDS011;4369;47.842;13.096;2023-07-13T14:16:26;3.55;;;2.10;;
8663;SDS011;4369;47.842;13.096;2023-07-13T14:18:56;2.67;;;2.35;;
8663;SDS011;4369;47.842;13.096;2023-07-13T14:21:25;3.30;;;2.53;;
8663;SDS011;4369;47.842;13.096;2023-07-13T14:23:54;2.85;;;2.17;;
8663;SDS011;4369;47.842;13.096;2023-07-13T14:26:22;4.40;;;2.10;;
8663;SDS011;4369;47.842;13.096;2023-07-13T14:28:52;2.42;;;2.13;;
8663;SDS011;4369;47.842;13.096;2023-07-13T14:31:22;1.80;;;1.65;;
8663;SDS011;4369;47.842;13.096;2023-07-13T14:33:54;1.90;;;1.80;;
8663;SDS011;4369;47.842;13.096;2023-07-13T14:36:22;2.40;;;2.20;;
8663;SDS011;4369;47.842;13.096;2023-07-13T14:38:52;2.58;;;2.03;;
8663;SDS011;4369;47.842;13.096;2023-07-13T14:41:19;2.28;;;2.08;;
8663;SDS011;4369;47.842;13.096;2023-07-13T14:43:46;2.70;;;2.05;;
8663;SDS011;4369;47.842;13.096;2023-07-13T14:46:18;2.67;;;2.10;;
8663;SDS011;4369;47.842;13.096;2023-07-13T14:48:54;2.45;;;1.60;;
8663;SDS011;4369;47.842;13.096;2023-07-13T14:51:27;2.08;;;1.88;;
8663;SDS011;4369;47.842;13.096;2023-07-13T14:53:54;1.52;;;1.52;;
8663;SDS011;4369;47.842;13.096;2023-07-13T14:56:21;3.10;;;1.95;;
8663;SDS011;4369;47.842;13.096;2023-07-13T14:58:48;1.80;;;1.70;;
8663;SDS011;4369;47.842;13.096;2023-07-13T15:01:15;3.83;;;1.85;;
8663;SDS011;4369;47.842;13.096;2023-07-13T15:03:44;1.70;;;1.60;;
8663;SDS011;4369;47.842;13.096;2023-07-13T15:06:13;3.13;;;1.90;;
8663;SDS011;4369;47.842;13.096;2023-07-13T15:08:40;1.90;;;1.80;;
8663;SDS011;4369;47.842;13.096;2023-07-13T15:11:07;3.22;;;1.63;;
8663;SDS011;4369;47.842;13.096;2023-07-13T15:13:36;2.28;;;1.83;;
8663;SDS011;4369;47.842;13.096;2023-07-13T15:16:04;1.88;;;1.77;;
8663;SDS011;4369;47.842;13.096;2023-07-13T15:18:34;1.60;;;1.48;;
8663;SDS011;4369;47.842;13.096;2023-07-13T15:21:08;1.77;;;1.30;;